createdAt,value
2019-03-23T00:00:01.055Z,53.93
2019-03-23T00:00:40.064Z,53.93
2019-03-23T00:01:18.655Z,54.09
2019-03-23T00:01:54.808Z,54.15
2019-03-23T00:02:30.827Z,54.25
2019-03-23T00:03:07.143Z,54.34
2019-03-23T00:03:43.097Z,54.32
2019-03-23T00:04:19.419Z,54.33
2019-03-23T00:04:55.679Z,54.11
2019-03-23T00:05:31.739Z,53.65
2019-03-23T00:06:07.698Z,53.34
2019-03-23T00:06:43.659Z,53.17
2019-03-23T00:07:20.017Z,53.32
2019-03-23T00:07:55.998Z,53.48
2019-03-23T00:08:32.322Z,53.55
2019-03-23T00:09:08.781Z,53.60
2019-03-23T00:09:44.839Z,53.55
2019-03-23T00:10:20.927Z,53.53
2019-03-23T00:10:56.994Z,53.54
2019-03-23T00:11:33.063Z,53.35
2019-03-23T00:12:09.378Z,53.20
2019-03-23T00:12:45.482Z,53.12
2019-03-23T00:13:21.489Z,53.00
2019-03-23T00:13:57.942Z,53.31
2019-03-23T00:14:34.402Z,53.39
2019-03-23T00:15:11.002Z,53.47
2019-03-23T00:15:47.821Z,53.38
2019-03-23T00:16:24.295Z,53.56
2019-03-23T00:17:00.262Z,53.37
2019-03-23T00:17:36.256Z,53.39
2019-03-23T00:18:12.412Z,53.51
2019-03-23T00:18:48.780Z,53.68
2019-03-23T00:19:24.786Z,53.53
2019-03-23T00:20:00.774Z,53.53
2019-03-23T00:20:37.019Z,53.57
2019-03-23T00:21:13.054Z,53.70
2019-03-23T00:21:49.494Z,53.82
2019-03-23T00:22:25.692Z,53.87
2019-03-23T00:23:01.662Z,53.88
2019-03-23T00:23:37.742Z,53.62
2019-03-23T00:24:14.537Z,53.75
2019-03-23T00:24:50.649Z,53.94
2019-03-23T00:25:26.659Z,54.03
2019-03-23T00:26:02.664Z,54.09
2019-03-23T00:26:39.865Z,54.13
2019-03-23T00:27:15.870Z,54.14
2019-03-23T00:27:51.871Z,54.30
2019-03-23T00:28:27.864Z,54.30
2019-03-23T00:29:03.835Z,54.27
2019-03-23T00:29:40.623Z,54.19
2019-03-23T00:30:16.781Z,54.30
2019-03-23T00:30:53.766Z,54.39
2019-03-23T00:31:30.662Z,54.26
2019-03-23T00:32:06.875Z,54.37
2019-03-23T00:32:43.022Z,54.47
2019-03-23T00:33:19.112Z,54.60
2019-03-23T00:33:55.684Z,54.59
2019-03-23T00:34:31.643Z,54.50
2019-03-23T00:35:08.215Z,54.45
2019-03-23T00:35:44.169Z,54.21
2019-03-23T00:36:20.469Z,54.30
2019-03-23T00:36:56.853Z,54.37
2019-03-23T00:37:33.250Z,54.28
2019-03-23T00:38:09.315Z,54.46
2019-03-23T00:38:45.545Z,54.62
2019-03-23T00:39:21.833Z,54.62
2019-03-23T00:39:58.336Z,54.65
2019-03-23T00:40:34.400Z,54.73
2019-03-23T00:41:10.836Z,54.80
2019-03-23T00:41:46.832Z,54.77
2019-03-23T00:42:22.818Z,54.78
2019-03-23T00:42:58.968Z,54.76
2019-03-23T00:43:34.936Z,54.75
2019-03-23T00:44:10.901Z,54.69
2019-03-23T00:44:47.322Z,54.63
2019-03-23T00:45:24.120Z,54.59
2019-03-23T00:46:00.115Z,54.67
2019-03-23T00:46:36.495Z,54.56
2019-03-23T00:47:12.560Z,54.54
2019-03-23T00:47:48.548Z,54.48
2019-03-23T00:48:24.626Z,54.43
2019-03-23T00:49:00.995Z,54.41
2019-03-23T00:49:36.946Z,54.43
2019-03-23T00:50:13.502Z,54.51
2019-03-23T00:50:49.578Z,54.65
2019-03-23T00:51:25.569Z,54.65
2019-03-23T00:52:01.546Z,54.66
2019-03-23T00:52:37.625Z,54.62
2019-03-23T00:53:13.869Z,54.63
2019-03-23T00:53:49.963Z,54.70
2019-03-23T00:54:26.059Z,54.79
2019-03-23T00:55:02.728Z,54.83
2019-03-23T00:55:39.020Z,54.87
2019-03-23T00:56:16.572Z,55.49
2019-03-23T00:56:53.133Z,55.54
2019-03-23T00:57:29.279Z,55.54
2019-03-23T00:58:05.361Z,55.36
2019-03-23T00:58:41.337Z,55.47
2019-03-23T00:59:17.517Z,55.56
2019-03-23T00:59:54.017Z,55.60
2019-03-23T01:00:30.170Z,55.57
2019-03-23T01:01:06.155Z,55.56
2019-03-23T01:01:42.231Z,55.56
2019-03-23T01:02:18.301Z,55.66
2019-03-23T01:02:54.722Z,55.74
2019-03-23T01:03:30.749Z,55.74
2019-03-23T01:04:06.818Z,55.89
2019-03-23T01:04:42.891Z,55.82
2019-03-23T01:05:19.356Z,55.86
2019-03-23T01:05:55.378Z,55.96
2019-03-23T01:06:31.893Z,55.83
2019-03-23T01:07:07.866Z,55.84
2019-03-23T01:07:43.902Z,55.90
2019-03-23T01:08:19.878Z,55.97
2019-03-23T01:08:56.237Z,55.98
2019-03-23T01:09:32.248Z,55.95
2019-03-23T01:10:09.086Z,55.96
2019-03-23T01:10:45.063Z,56.10
2019-03-23T01:11:21.031Z,56.17
2019-03-23T01:11:57.100Z,55.89
2019-03-23T01:12:33.125Z,55.95
2019-03-23T01:13:09.498Z,55.80
2019-03-23T01:13:45.557Z,55.87
2019-03-23T01:14:21.589Z,55.96
2019-03-23T01:14:57.601Z,56.17
2019-03-23T01:15:33.551Z,56.26
2019-03-23T01:16:09.880Z,56.41
2019-03-23T01:16:45.895Z,56.58
2019-03-23T01:17:21.948Z,56.63
2019-03-23T01:17:58.032Z,56.47
2019-03-23T01:18:34.018Z,56.50
2019-03-23T01:19:10.100Z,56.49
2019-03-23T01:19:46.193Z,56.33
2019-03-23T01:20:22.281Z,56.42
2019-03-23T01:20:58.602Z,56.43
2019-03-23T01:21:34.667Z,56.19
2019-03-23T01:22:11.031Z,56.16
2019-03-23T01:22:47.053Z,55.93
2019-03-23T01:23:23.634Z,55.89
2019-03-23T01:24:00.165Z,55.91
2019-03-23T01:24:36.231Z,55.83
2019-03-23T01:25:12.833Z,55.75
2019-03-23T01:25:49.531Z,55.78
2019-03-23T01:26:25.823Z,55.52
2019-03-23T01:27:01.830Z,55.54
2019-03-23T01:27:37.918Z,55.58
2019-03-23T01:28:14.006Z,55.64
2019-03-23T01:28:50.025Z,55.64
2019-03-23T01:29:26.077Z,55.77
2019-03-23T01:30:02.436Z,55.82
2019-03-23T01:30:38.416Z,55.70
2019-03-23T01:31:14.631Z,55.81
2019-03-23T01:31:50.878Z,55.75
2019-03-23T01:32:27.078Z,55.81
2019-03-23T01:33:03.459Z,55.75
2019-03-23T01:33:40.010Z,55.79
2019-03-23T01:34:16.311Z,55.90
2019-03-23T01:34:52.323Z,55.98
2019-03-23T01:35:28.359Z,55.99
2019-03-23T01:36:04.473Z,56.07
2019-03-23T01:36:40.437Z,56.13
2019-03-23T01:37:16.395Z,55.94
2019-03-23T01:37:52.434Z,56.05
2019-03-23T01:38:29.266Z,56.33
2019-03-23T01:39:07.091Z,56.33
2019-03-23T01:39:43.396Z,56.16
2019-03-23T01:40:19.371Z,56.07
2019-03-23T01:40:55.393Z,56.07
2019-03-23T01:41:31.376Z,56.07
2019-03-23T01:42:07.371Z,56.12
2019-03-23T01:42:43.439Z,56.11
2019-03-23T01:43:19.471Z,56.13
2019-03-23T01:43:55.568Z,56.18
2019-03-23T01:44:31.780Z,55.87
2019-03-23T01:45:08.644Z,55.87
2019-03-23T01:45:44.829Z,56.23
2019-03-23T01:46:20.931Z,56.29
2019-03-23T01:46:57.125Z,56.29
2019-03-23T01:47:33.516Z,56.54
2019-03-23T01:48:09.878Z,56.54
2019-03-23T01:48:45.842Z,56.47
2019-03-23T01:49:21.949Z,56.90
2019-03-23T01:49:57.945Z,56.90
2019-03-23T01:50:33.954Z,57.00
2019-03-23T01:51:09.926Z,57.00
2019-03-23T01:51:46.253Z,56.78
2019-03-23T01:52:22.574Z,56.84
2019-03-23T01:52:58.944Z,56.84
2019-03-23T01:53:34.911Z,57.14
2019-03-23T01:54:10.873Z,57.14
2019-03-23T01:54:46.840Z,56.78
2019-03-23T01:55:22.866Z,56.78
2019-03-23T01:55:59.020Z,56.68
2019-03-23T01:56:35.100Z,56.70
2019-03-23T01:57:11.085Z,56.91
2019-03-23T01:57:47.067Z,57.19
2019-03-23T01:58:23.162Z,57.16
2019-03-23T01:58:59.523Z,57.24
2019-03-23T01:59:35.587Z,57.07
2019-03-23T02:00:11.945Z,57.07
2019-03-23T02:00:47.922Z,57.07
2019-03-23T02:01:24.105Z,57.05
2019-03-23T02:02:00.566Z,57.14
2019-03-23T02:02:36.833Z,57.05
2019-03-23T02:03:13.266Z,56.97
2019-03-23T02:03:50.054Z,57.03
2019-03-23T02:04:26.522Z,57.10
2019-03-23T02:05:02.511Z,57.14
2019-03-23T02:05:38.612Z,57.13
2019-03-23T02:06:14.573Z,57.20
2019-03-23T02:06:51.483Z,57.13
2019-03-23T02:07:27.878Z,56.96
2019-03-23T02:08:03.858Z,57.00
2019-03-23T02:08:39.879Z,57.16
2019-03-23T02:09:15.829Z,57.32
2019-03-23T02:09:51.833Z,57.29
2019-03-23T02:10:27.866Z,57.18
2019-03-23T02:11:04.693Z,57.32
2019-03-23T02:11:41.471Z,57.28
2019-03-23T02:12:17.449Z,57.52
2019-03-23T02:12:53.574Z,57.62
2019-03-23T02:13:29.597Z,57.66
2019-03-23T02:14:05.663Z,57.44
2019-03-23T02:14:41.639Z,57.30
2019-03-23T02:15:17.898Z,57.24
2019-03-23T02:15:54.023Z,57.32
2019-03-23T02:16:30.026Z,57.32
2019-03-23T02:17:05.992Z,57.26
2019-03-23T02:17:42.261Z,57.18
2019-03-23T02:18:18.311Z,57.24
2019-03-23T02:18:54.397Z,57.22
2019-03-23T02:19:30.430Z,57.16
2019-03-23T02:20:07.852Z,57.26
2019-03-23T02:20:43.854Z,57.45
2019-03-23T02:21:20.279Z,57.55
2019-03-23T02:21:57.192Z,57.54
2019-03-23T02:22:33.619Z,57.60
2019-03-23T02:23:09.642Z,57.53
2019-03-23T02:23:45.973Z,57.47
2019-03-23T02:24:22.013Z,57.46
2019-03-23T02:24:58.359Z,57.56
2019-03-23T02:25:34.483Z,57.61
2019-03-23T02:26:10.457Z,57.52
2019-03-23T02:26:46.448Z,57.53
2019-03-23T02:27:22.575Z,57.51
2019-03-23T02:27:59.079Z,57.79
2019-03-23T02:28:35.447Z,57.85
2019-03-23T02:29:11.430Z,57.96
2019-03-23T02:29:47.798Z,57.83
2019-03-23T02:30:23.800Z,57.91
2019-03-23T02:31:00.761Z,57.92
2019-03-23T02:31:36.776Z,57.97
2019-03-23T02:32:12.914Z,57.95
2019-03-23T02:32:48.903Z,58.02
2019-03-23T02:33:25.242Z,58.08
2019-03-23T02:34:01.372Z,57.90
2019-03-23T02:34:37.757Z,58.01
2019-03-23T02:35:13.941Z,58.07
2019-03-23T02:35:49.926Z,57.51
2019-03-23T02:36:26.173Z,57.53
2019-03-23T02:37:02.232Z,57.67
2019-03-23T02:37:38.217Z,57.87
2019-03-23T02:38:14.193Z,58.06
2019-03-23T02:38:50.581Z,58.22
2019-03-23T02:39:26.633Z,58.26
2019-03-23T02:40:02.646Z,58.17
2019-03-23T02:40:38.794Z,58.13
2019-03-23T02:41:14.873Z,57.77
2019-03-23T02:41:51.010Z,57.83
2019-03-23T02:42:27.497Z,57.83
2019-03-23T02:43:03.817Z,58.18
2019-03-23T02:43:39.948Z,58.17
2019-03-23T02:44:15.907Z,58.37
2019-03-23T02:44:52.450Z,58.43
2019-03-23T02:45:30.382Z,58.45
2019-03-23T02:46:06.217Z,58.60
2019-03-23T02:46:42.977Z,58.44
2019-03-23T02:47:19.639Z,58.57
2019-03-23T02:47:55.642Z,58.56
2019-03-23T02:48:32.130Z,58.48
2019-03-23T02:49:08.554Z,58.58
2019-03-23T02:49:44.525Z,58.53
2019-03-23T02:50:20.817Z,58.53
2019-03-23T02:50:56.953Z,58.68
2019-03-23T02:51:32.945Z,58.79
2019-03-23T02:52:08.956Z,59.10
2019-03-23T02:52:44.919Z,59.10
2019-03-23T02:53:21.280Z,58.97
2019-03-23T02:53:57.285Z,59.20
2019-03-23T02:54:33.365Z,59.36
2019-03-23T02:55:09.975Z,59.58
2019-03-23T02:55:45.941Z,59.58
2019-03-23T02:56:22.253Z,59.49
2019-03-23T02:56:58.360Z,59.49
2019-03-23T02:57:34.601Z,59.91
2019-03-23T02:58:10.585Z,59.91
2019-03-23T02:58:46.580Z,60.22
2019-03-23T02:59:22.580Z,60.23
2019-03-23T02:59:58.639Z,60.23
2019-03-23T03:00:35.003Z,59.96
2019-03-23T03:01:11.306Z,60.38
2019-03-23T03:01:47.385Z,60.02
2019-03-23T03:02:23.414Z,60.26
2019-03-23T03:02:59.500Z,60.05
2019-03-23T03:03:36.230Z,60.05
2019-03-23T03:04:12.218Z,60.54
2019-03-23T03:04:48.226Z,60.60
2019-03-23T03:05:24.616Z,60.49
2019-03-23T03:06:00.741Z,60.57
2019-03-23T03:06:36.711Z,60.60
2019-03-23T03:07:12.706Z,60.84
2019-03-23T03:07:48.793Z,60.31
2019-03-23T03:08:25.008Z,60.31
2019-03-23T03:09:01.226Z,60.60
2019-03-23T03:09:37.862Z,60.94
2019-03-23T03:10:17.173Z,60.94
2019-03-23T03:10:53.532Z,61.10
2019-03-23T03:11:29.503Z,61.17
2019-03-23T03:12:05.481Z,61.29
2019-03-23T03:12:41.452Z,61.41
2019-03-23T03:13:17.741Z,61.41
2019-03-23T03:13:54.188Z,61.29
2019-03-23T03:14:30.170Z,61.28
2019-03-23T03:15:06.804Z,61.28
2019-03-23T03:15:42.789Z,61.24
2019-03-23T03:16:18.788Z,61.24
2019-03-23T03:16:54.776Z,61.53
2019-03-23T03:17:30.842Z,61.09
2019-03-23T03:18:07.840Z,61.36
2019-03-23T03:18:44.714Z,61.27
2019-03-23T03:19:21.072Z,61.27
2019-03-23T03:19:57.418Z,61.55
2019-03-23T03:20:33.762Z,61.55
2019-03-23T03:21:09.759Z,61.31
2019-03-23T03:21:46.055Z,61.45
2019-03-23T03:22:22.436Z,61.45
2019-03-23T03:22:58.886Z,61.50
2019-03-23T03:23:34.957Z,61.40
2019-03-23T03:24:10.922Z,60.96
2019-03-23T03:24:47.334Z,61.62
2019-03-23T03:25:23.404Z,61.66
2019-03-23T03:25:59.454Z,61.66
2019-03-23T03:26:36.087Z,61.70
2019-03-23T03:27:12.157Z,61.82
2019-03-23T03:27:48.096Z,61.97
2019-03-23T03:28:24.776Z,61.97
2019-03-23T03:29:00.905Z,61.98
2019-03-23T03:29:37.244Z,61.89
2019-03-23T03:30:13.840Z,61.45
2019-03-23T03:30:49.829Z,61.45
2019-03-23T03:31:25.945Z,61.21
2019-03-23T03:32:02.395Z,61.21
2019-03-23T03:32:38.364Z,61.34
2019-03-23T03:33:14.433Z,61.48
2019-03-23T03:33:50.933Z,61.45
2019-03-23T03:34:26.962Z,61.45
2019-03-23T03:35:03.143Z,61.77
2019-03-23T03:35:39.463Z,61.46
2019-03-23T03:36:15.473Z,61.46
2019-03-23T03:36:51.440Z,61.33
2019-03-23T03:37:27.452Z,61.26
2019-03-23T03:38:03.415Z,61.26
2019-03-23T03:38:39.380Z,60.93
2019-03-23T03:39:15.817Z,61.06
2019-03-23T03:39:51.805Z,61.28
2019-03-23T03:40:27.937Z,61.23
2019-03-23T03:41:04.167Z,61.47
2019-03-23T03:41:40.472Z,61.47
2019-03-23T03:42:16.454Z,60.62
2019-03-23T03:42:53.198Z,60.50
2019-03-23T03:43:29.265Z,61.05
2019-03-23T03:44:05.403Z,60.97
2019-03-23T03:44:41.715Z,61.02
2019-03-23T03:45:24.182Z,61.02
2019-03-23T03:46:00.247Z,60.72
2019-03-23T03:46:36.207Z,61.04
2019-03-23T03:47:12.714Z,60.66
2019-03-23T03:47:48.698Z,60.66
2019-03-23T03:48:25.210Z,60.99
2019-03-23T03:49:12.457Z,61.01
2019-03-23T03:49:39.321Z,61.09
2019-03-23T03:50:15.479Z,61.00
2019-03-23T03:50:51.455Z,61.00
2019-03-23T03:51:27.577Z,61.16
2019-03-23T03:52:03.578Z,61.11
2019-03-23T03:52:39.546Z,60.92
2019-03-23T03:53:15.632Z,61.12
2019-03-23T03:53:51.982Z,61.23
2019-03-23T03:54:28.432Z,61.23
2019-03-23T03:55:04.517Z,61.14
2019-03-23T03:55:40.483Z,61.27
2019-03-23T03:56:16.449Z,61.09
2019-03-23T03:56:53.938Z,60.79
2019-03-23T03:57:30.458Z,61.38
2019-03-23T03:58:06.431Z,61.36
2019-03-23T03:58:42.504Z,61.16
2019-03-23T03:59:18.927Z,61.31
2019-03-23T03:59:55.291Z,61.31
2019-03-23T04:00:31.837Z,61.28
2019-03-23T04:01:07.816Z,61.34
2019-03-23T04:01:44.206Z,61.04
2019-03-23T04:02:20.202Z,61.04
2019-03-23T04:02:56.318Z,61.16
2019-03-23T04:03:32.631Z,61.33
2019-03-23T04:04:08.627Z,61.35
2019-03-23T04:04:44.603Z,61.35
2019-03-23T04:05:20.611Z,61.17
2019-03-23T04:05:57.015Z,61.34
2019-03-23T04:06:33.696Z,61.34
2019-03-23T04:07:10.687Z,61.32
2019-03-23T04:07:46.707Z,61.53
2019-03-23T04:08:22.798Z,61.47
2019-03-23T04:08:58.989Z,61.47
2019-03-23T04:09:34.976Z,61.46
2019-03-23T04:10:11.406Z,61.58
2019-03-23T04:10:47.533Z,61.52
2019-03-23T04:11:23.725Z,61.33
2019-03-23T04:11:59.878Z,61.57
2019-03-23T04:12:36.683Z,61.58
2019-03-23T04:13:12.666Z,61.57
2019-03-23T04:13:49.050Z,61.57
2019-03-23T04:14:25.473Z,61.83
2019-03-23T04:15:02.426Z,61.86
2019-03-23T04:15:38.402Z,62.05
2019-03-23T04:16:14.803Z,61.60
2019-03-23T04:16:50.896Z,62.47
2019-03-23T04:17:27.407Z,62.37
2019-03-23T04:18:03.768Z,62.29
2019-03-23T04:18:39.744Z,62.29
2019-03-23T04:19:15.744Z,62.40
2019-03-23T04:19:51.787Z,62.38
2019-03-23T04:20:27.830Z,62.24
2019-03-23T04:21:03.912Z,62.30
2019-03-23T04:21:39.870Z,62.57
2019-03-23T04:22:16.296Z,62.04
2019-03-23T04:22:52.397Z,62.10
2019-03-23T04:23:28.397Z,62.10
2019-03-23T04:24:04.739Z,62.31
2019-03-23T04:24:40.722Z,62.31
2019-03-23T04:25:17.152Z,62.37
2019-03-23T04:25:53.707Z,62.61
2019-03-23T04:26:29.730Z,62.69
2019-03-23T04:27:05.996Z,62.69
2019-03-23T04:27:42.282Z,62.59
2019-03-23T04:28:18.824Z,62.77
2019-03-23T04:28:55.365Z,62.69
2019-03-23T04:29:31.378Z,62.69
2019-03-23T04:30:08.270Z,62.83
2019-03-23T04:30:44.258Z,62.83
2019-03-23T04:31:20.257Z,62.62
2019-03-23T04:31:56.301Z,62.74
2019-03-23T04:32:32.341Z,62.89
2019-03-23T04:33:08.622Z,63.32
2019-03-23T04:33:44.695Z,63.85
2019-03-23T04:34:20.866Z,63.85
2019-03-23T04:34:57.790Z,63.28
2019-03-23T04:35:33.781Z,62.89
2019-03-23T04:36:09.764Z,62.57
2019-03-23T04:36:46.302Z,62.10
2019-03-23T04:37:22.307Z,62.62
2019-03-23T04:37:58.523Z,62.87
2019-03-23T04:38:34.501Z,62.87
2019-03-23T04:39:10.477Z,63.19
2019-03-23T04:39:47.002Z,63.10
2019-03-23T04:40:23.189Z,63.10
2019-03-23T04:40:59.660Z,63.44
2019-03-23T04:41:36.026Z,63.52
2019-03-23T04:42:12.001Z,63.61
2019-03-23T04:42:48.092Z,63.39
2019-03-23T04:43:24.458Z,63.39
2019-03-23T04:44:00.481Z,63.39
2019-03-23T04:44:36.453Z,63.77
2019-03-23T04:45:12.814Z,63.99
2019-03-23T04:45:48.864Z,64.03
2019-03-23T04:46:24.879Z,64.19
2019-03-23T04:47:01.265Z,64.22
2019-03-23T04:47:37.242Z,64.22
2019-03-23T04:48:13.242Z,63.94
2019-03-23T04:48:49.632Z,63.94
2019-03-23T04:49:25.618Z,63.92
2019-03-23T04:50:01.961Z,63.62
2019-03-23T04:50:37.934Z,63.62
2019-03-23T04:51:13.927Z,64.23
2019-03-23T04:51:50.218Z,64.04
2019-03-23T04:52:26.233Z,64.18
2019-03-23T04:53:02.672Z,64.05
2019-03-23T04:53:38.639Z,64.05
2019-03-23T04:54:14.623Z,64.38
2019-03-23T04:54:51.025Z,64.38
2019-03-23T04:55:27.133Z,64.39
2019-03-23T04:56:03.120Z,64.39
2019-03-23T04:56:39.089Z,64.15
2019-03-23T04:57:15.305Z,64.15
2019-03-23T04:57:51.278Z,64.06
2019-03-23T04:58:27.268Z,64.25
2019-03-23T04:59:03.264Z,64.07
2019-03-23T04:59:39.279Z,64.20
2019-03-23T05:00:16.249Z,64.20
2019-03-23T05:00:52.620Z,64.31
2019-03-23T05:01:28.736Z,64.71
2019-03-23T05:02:05.167Z,64.84
2019-03-23T05:02:41.162Z,64.27
2019-03-23T05:03:17.145Z,64.70
2019-03-23T05:03:53.552Z,64.70
2019-03-23T05:04:30.220Z,64.56
2019-03-23T05:05:06.617Z,64.87
2019-03-23T05:05:42.696Z,64.87
2019-03-23T05:06:18.653Z,64.85
2019-03-23T05:06:54.652Z,64.92
2019-03-23T05:07:30.641Z,64.92
2019-03-23T05:08:06.613Z,64.66
2019-03-23T05:08:42.582Z,64.71
2019-03-23T05:09:18.589Z,64.97
2019-03-23T05:09:54.596Z,65.04
2019-03-23T05:10:30.685Z,65.30
2019-03-23T05:11:06.853Z,65.36
2019-03-23T05:11:42.836Z,65.28
2019-03-23T05:12:18.825Z,65.28
2019-03-23T05:12:55.060Z,65.18
2019-03-23T05:13:31.164Z,65.26
2019-03-23T05:14:07.148Z,65.26
2019-03-23T05:14:43.157Z,65.26
2019-03-23T05:15:19.134Z,65.19
2019-03-23T05:15:55.254Z,65.08
2019-03-23T05:16:31.916Z,65.08
2019-03-23T05:17:07.968Z,65.20
2019-03-23T05:17:43.936Z,65.20
2019-03-23T05:18:20.129Z,65.11
2019-03-23T05:18:56.134Z,65.18
2019-03-23T05:19:32.190Z,65.15
2019-03-23T05:20:08.875Z,65.15
2019-03-23T05:20:44.860Z,64.86
2019-03-23T05:21:21.071Z,65.06
2019-03-23T05:21:57.220Z,65.06
2019-03-23T05:22:33.298Z,64.96
2019-03-23T05:23:09.268Z,64.96
2019-03-23T05:23:45.921Z,65.11
2019-03-23T05:24:23.422Z,65.12
2019-03-23T05:24:59.542Z,65.21
2019-03-23T05:25:35.978Z,65.11
2019-03-23T05:26:11.942Z,65.11
2019-03-23T05:26:48.764Z,65.16
2019-03-23T05:27:25.273Z,65.07
2019-03-23T05:28:01.404Z,65.23
2019-03-23T05:28:37.794Z,65.21
2019-03-23T05:29:13.822Z,65.21
2019-03-23T05:29:50.148Z,65.07
2019-03-23T05:30:26.399Z,65.07
2019-03-23T05:31:02.804Z,65.33
2019-03-23T05:31:38.860Z,65.34
2019-03-23T05:32:14.843Z,65.34
2019-03-23T05:32:50.871Z,65.37
2019-03-23T05:33:26.832Z,65.37
2019-03-23T05:34:02.918Z,65.41
2019-03-23T05:34:39.318Z,65.41
2019-03-23T05:35:15.284Z,65.65
2019-03-23T05:35:51.406Z,65.65
2019-03-23T05:36:27.730Z,65.58
2019-03-23T05:37:03.719Z,65.53
2019-03-23T05:37:39.685Z,65.37
2019-03-23T05:38:16.032Z,65.64
2019-03-23T05:38:52.057Z,65.64
2019-03-23T05:39:28.528Z,65.60
2019-03-23T05:40:04.891Z,65.75
2019-03-23T05:41:15.167Z,65.65
2019-03-23T05:41:51.247Z,65.49
2019-03-23T05:42:27.274Z,65.45
2019-03-23T05:43:03.247Z,65.45
2019-03-23T05:43:39.210Z,65.36
2019-03-23T05:44:15.612Z,65.39
2019-03-23T05:44:51.625Z,65.24
2019-03-23T05:45:27.706Z,65.29
2019-03-23T05:46:03.774Z,65.34
2019-03-23T05:46:39.743Z,65.21
2019-03-23T05:47:15.705Z,65.21
2019-03-23T05:47:51.736Z,65.14
2019-03-23T05:48:27.860Z,65.14
2019-03-23T05:49:04.147Z,65.14
2019-03-23T05:49:40.710Z,65.14
2019-03-23T05:50:17.070Z,65.29
2019-03-23T05:50:53.123Z,65.01
2019-03-23T05:51:29.578Z,65.16
2019-03-23T05:52:05.644Z,65.33
2019-03-23T05:52:41.605Z,65.37
2019-03-23T05:53:17.697Z,65.52
2019-03-23T05:53:54.554Z,65.43
2019-03-23T05:54:30.554Z,65.22
2019-03-23T05:55:06.922Z,65.39
2019-03-23T05:55:42.917Z,65.52
2019-03-23T05:56:18.897Z,65.37
2019-03-23T05:56:54.888Z,65.24
2019-03-23T05:57:30.860Z,65.86
2019-03-23T05:58:06.842Z,65.86
2019-03-23T05:58:42.810Z,65.18
2019-03-23T05:59:18.873Z,65.30
2019-03-23T05:59:54.910Z,65.41
2019-03-23T06:00:31.421Z,65.41
2019-03-23T06:01:07.403Z,65.56
2019-03-23T06:01:43.384Z,65.56
2019-03-23T06:02:20.489Z,65.53
2019-03-23T06:02:56.488Z,65.44
2019-03-23T06:03:32.465Z,65.57
2019-03-23T06:04:08.546Z,65.39
2019-03-23T06:04:44.527Z,65.11
2019-03-23T06:05:20.868Z,64.83
2019-03-23T06:05:56.971Z,64.83
2019-03-23T06:06:33.036Z,64.71
2019-03-23T06:07:09.009Z,64.59
2019-03-23T06:07:45.169Z,64.59
2019-03-23T06:08:21.255Z,64.59
2019-03-23T06:08:57.236Z,64.70
2019-03-23T06:09:33.220Z,64.70
2019-03-23T06:10:10.009Z,64.98
2019-03-23T06:10:46.010Z,64.98
2019-03-23T06:11:22.021Z,64.85
2019-03-23T06:11:58.484Z,64.64
2019-03-23T06:12:34.451Z,64.41
2019-03-23T06:13:10.410Z,64.56
2019-03-23T06:13:46.494Z,64.49
2019-03-23T06:14:22.657Z,64.49
2019-03-23T06:14:58.675Z,64.58
2019-03-23T06:15:34.639Z,64.36
2019-03-23T06:16:10.690Z,64.05
2019-03-23T06:16:46.659Z,64.16
2019-03-23T06:17:22.677Z,63.98
2019-03-23T06:17:58.695Z,63.98
2019-03-23T06:18:34.761Z,64.08
2019-03-23T06:19:10.721Z,63.91
2019-03-23T06:19:47.056Z,63.83
2019-03-23T06:20:23.205Z,64.15
2019-03-23T06:20:59.185Z,64.40
2019-03-23T06:21:35.272Z,64.33
2019-03-23T06:22:11.339Z,64.33
2019-03-23T06:22:47.405Z,64.65
2019-03-23T06:23:23.738Z,64.65
2019-03-23T06:24:00.115Z,64.65
2019-03-23T06:24:36.099Z,64.38
2019-03-23T06:25:12.282Z,64.47
2019-03-23T06:25:48.255Z,64.49
2019-03-23T06:26:24.708Z,64.28
2019-03-23T06:27:01.215Z,64.28
2019-03-23T06:27:37.713Z,64.25
2019-03-23T06:28:13.770Z,64.25
2019-03-23T06:28:49.753Z,64.17
2019-03-23T06:29:25.751Z,64.17
2019-03-23T06:30:01.778Z,64.15
2019-03-23T06:30:38.133Z,63.80
2019-03-23T06:31:14.449Z,63.80
2019-03-23T06:31:50.443Z,63.77
2019-03-23T06:32:26.933Z,63.47
2019-03-23T06:33:02.985Z,63.47
2019-03-23T06:33:39.248Z,63.36
2019-03-23T06:34:15.231Z,63.48
2019-03-23T06:34:51.414Z,63.48
2019-03-23T06:35:27.427Z,63.83
2019-03-23T06:36:03.443Z,63.83
2019-03-23T06:36:39.406Z,63.62
2019-03-23T06:37:15.736Z,63.74
2019-03-23T06:37:52.261Z,63.74
2019-03-23T06:38:28.731Z,63.79
2019-03-23T06:39:06.196Z,63.60
2019-03-23T06:39:42.178Z,63.96
2019-03-23T06:40:18.490Z,63.96
2019-03-23T06:40:54.856Z,64.14
2019-03-23T06:41:30.926Z,64.18
2019-03-23T06:42:07.001Z,64.29
2019-03-23T06:42:43.287Z,64.17
2019-03-23T06:43:19.252Z,63.97
2019-03-23T06:43:55.476Z,64.12
2019-03-23T06:44:31.698Z,64.12
2019-03-23T06:45:08.963Z,64.19
2019-03-23T06:45:45.366Z,64.11
2019-03-23T06:46:21.400Z,64.09
2019-03-23T06:46:57.405Z,64.09
2019-03-23T06:47:33.375Z,64.03
2019-03-23T06:48:09.330Z,64.03
2019-03-23T06:48:45.320Z,64.01
2019-03-23T06:49:21.368Z,63.78
2019-03-23T06:49:57.394Z,63.60
2019-03-23T06:50:33.356Z,63.67
2019-03-23T06:51:09.328Z,63.57
2019-03-23T06:51:45.300Z,63.57
2019-03-23T06:52:21.375Z,63.38
2019-03-23T06:52:57.363Z,63.17
2019-03-23T06:53:33.884Z,63.36
2019-03-23T06:54:09.850Z,63.36
2019-03-23T06:54:45.852Z,63.25
2019-03-23T06:55:21.886Z,62.74
2019-03-23T06:55:57.881Z,62.74
2019-03-23T06:56:33.908Z,63.46
2019-03-23T06:57:09.886Z,63.45
2019-03-23T06:57:45.950Z,63.45
2019-03-23T06:58:22.129Z,63.38
2019-03-23T06:58:59.431Z,63.38
2019-03-23T06:59:35.455Z,63.14
2019-03-23T07:00:13.383Z,63.04
2019-03-23T07:00:49.822Z,63.24
2019-03-23T07:01:26.213Z,63.24
2019-03-23T07:02:02.198Z,62.53
2019-03-23T07:02:38.196Z,62.53
2019-03-23T07:03:14.531Z,62.12
2019-03-23T07:03:50.847Z,62.48
2019-03-23T07:04:27.010Z,62.50
2019-03-23T07:05:02.963Z,62.50
2019-03-23T07:05:39.131Z,62.37
2019-03-23T07:06:15.366Z,62.37
2019-03-23T07:06:51.377Z,62.58
2019-03-23T07:07:27.378Z,62.01
2019-03-23T07:08:03.382Z,62.01
2019-03-23T07:08:39.361Z,62.22
2019-03-23T07:09:16.638Z,61.67
2019-03-23T07:09:52.782Z,61.67
2019-03-23T07:10:28.766Z,61.66
2019-03-23T07:11:04.759Z,61.50
2019-03-23T07:11:40.826Z,61.50
2019-03-23T07:12:16.893Z,61.21
2019-03-23T07:12:52.906Z,61.21
2019-03-23T07:13:29.129Z,61.51
2019-03-23T07:14:05.735Z,61.51
2019-03-23T07:14:41.684Z,60.86
2019-03-23T07:15:20.259Z,61.08
2019-03-23T07:15:56.652Z,60.77
2019-03-23T07:16:32.623Z,60.79
2019-03-23T07:17:08.589Z,60.95
2019-03-23T07:17:44.555Z,60.95
2019-03-23T07:18:21.012Z,60.92
2019-03-23T07:18:57.112Z,60.79
2019-03-23T07:19:33.071Z,60.92
2019-03-23T07:20:10.846Z,60.41
2019-03-23T07:20:46.786Z,60.41
2019-03-23T07:21:22.790Z,60.27
2019-03-23T07:21:58.768Z,60.27
2019-03-23T07:22:35.159Z,60.54
2019-03-23T07:23:11.150Z,60.84
2019-03-23T07:23:47.207Z,60.84
2019-03-23T07:24:23.743Z,60.22
2019-03-23T07:24:59.758Z,60.11
2019-03-23T07:25:36.073Z,60.06
2019-03-23T07:26:12.351Z,60.00
2019-03-23T07:26:48.325Z,60.04
2019-03-23T07:27:24.308Z,59.48
2019-03-23T07:28:00.276Z,59.23
2019-03-23T07:28:36.260Z,58.83
2019-03-23T07:29:12.569Z,58.83
2019-03-23T07:29:48.583Z,58.95
2019-03-23T07:30:24.671Z,58.85
2019-03-23T07:31:00.667Z,58.78
2019-03-23T07:31:36.653Z,58.91
2019-03-23T07:32:12.630Z,58.86
2019-03-23T07:32:48.621Z,58.80
2019-03-23T07:33:24.625Z,58.80
2019-03-23T07:34:00.611Z,58.31
2019-03-23T07:34:37.046Z,57.79
2019-03-23T07:35:13.250Z,57.79
2019-03-23T07:35:49.246Z,57.97
2019-03-23T07:36:25.281Z,57.97
2019-03-23T07:37:01.260Z,58.12
2019-03-23T07:37:37.222Z,58.46
2019-03-23T07:38:13.204Z,58.42
2019-03-23T07:38:49.279Z,58.34
2019-03-23T07:39:29.121Z,58.01
2019-03-23T07:40:03.063Z,58.01
2019-03-23T07:40:39.130Z,58.16
2019-03-23T07:41:15.095Z,57.97
2019-03-23T07:41:51.122Z,57.97
2019-03-23T07:42:27.137Z,58.50
2019-03-23T07:43:03.457Z,58.61
2019-03-23T07:43:39.395Z,58.80
2019-03-23T07:44:15.362Z,58.41
2019-03-23T07:44:51.373Z,58.41
2019-03-23T07:45:28.648Z,58.20
2019-03-23T07:46:05.105Z,58.20
2019-03-23T07:46:41.082Z,58.51